Kezdőlap
METAR-TAF:

METAR-TAF

Repülőterek :

Phrae, Thaiföld

földrajzi szélesség: 18-10N, földrajzi hosszúság: 100-10E, magasság: 161 m

Jelenlegi meteorológiai megfigyelések

A jelentés 5 órával és 33 perccel ezelõtt készült, 11:00 UTC
Dél-délnyugati szél 10 kt
Hőmérséklet 32°C
Páratartalom 63%
Légköri nyomás 1001 hPa
Látótávolság 10 km, vagy több
Kevés felhő 4000 lábon

METAR: VTCP 121100Z 20010KT 9999 FEW040 32/24 Q1001 NOSIG

Idő: 23:33 (16:33 UTC)

Előrejelzés

A jelentés 5 órával és 33 perccel ezelõtt készült, 11:00 UTC
Az előrejelzés 12-én 12 óra UTC és 13-én 12 óra UTC között érvényes
Dél-délnyugati szél 5 kt
Látótávolság 10 km, vagy több
Szórványos felhőzet 3500 lábon
13-én 09 óra UTC és 13-én 12 óra UTC között ideiglenes
Kevés felhő 2000 lábon, Cumulonimbus.
Szakadozott felhőzet 2500 lábon
zivatar, enyhe esõ,

TAF: VTCP 121100Z 1212/1312 20005KT 9999 SCT035 TEMPO 1309/1312 -TSRA FEW020CB BKN025

Meteorológiai megfigyelések és előrejelzések több, mint 4000 repülőtéren (METAR és TAF jelentéseket).

A térképen piros és sárga pontok jelzik az elérhető meteorológiai állomásokat.

Mozgassa az egeret a pont fölött, hogy megjelenjen az állomás neve.

Azután kattintson az időjárási megfigyelések és előrejelzések megtekintéséhez.

A térkép megváltoztatása: kattintson a fekete keresztel jelölt zöld gombra ráközelítéshez, a vonallal jelölt zöld gombra távolításhoz, vagy a zöld nyilakra a szomszédos térképek eléréséhez.


METAR-TAF: